Wetterdaten: Woche 27.09.10 - 03.10.10 (KW39)
Datum Zeit Temperatur Luftfeuchte Luftdruck Niederschlag Wind Richtung Sonnenschein Solar Taupunkt Windchill Windben
27.09.2010 00:00 8.2 C 94 % 1012.5 hPa 0.0 l/m 0.0 km/h (0 Bft) W-NW 0.00 h 0 W/m 7.3 C 8.2 C 0.1 km/h (0 Bft)
27.09.2010 01:00 7.8 C 96 % 1012.2 hPa 0.0 l/m 0.0 km/h (0 Bft) N 0.00 h 0 W/m 7.1 C 7.8 C 0.0 km/h (0 Bft)
27.09.2010 02:00 7.0 C 96 % 1012.1 hPa 0.0 l/m 0.4 km/h (0 Bft) W-NW 0.00 h 0 W/m 6.5 C 7.0 C 0.8 km/h (0 Bft)
27.09.2010 03:00 6.7 C 97 % 1012.0 hPa 0.0 l/m 0.0 km/h (0 Bft) N 0.00 h 0 W/m 6.3 C 6.7 C 0.2 km/h (0 Bft)
27.09.2010 04:00 6.4 C 98 % 1011.9 hPa 0.0 l/m 0.0 km/h (0 Bft) N 0.00 h 0 W/m 6.0 C 6.4 C 0.0 km/h (0 Bft)
27.09.2010 05:00 5.9 C 97 % 1012.2 hPa 0.0 l/m 0.0 km/h (0 Bft) N 0.00 h 0 W/m 5.5 C 5.9 C 0.0 km/h (0 Bft)
27.09.2010 06:00 5.6 C 97 % 1012.3 hPa 0.0 l/m 0.0 km/h (0 Bft) N 0.00 h 0 W/m 5.2 C 5.6 C 0.0 km/h (0 Bft)
27.09.2010 07:00 5.6 C 97 % 1012.4 hPa 0.0 l/m 0.0 km/h (0 Bft) N 0.00 h 7 W/m 5.1 C 5.6 C 0.0 km/h (0 Bft)
27.09.2010 08:00 5.7 C 98 % 1012.5 hPa 0.0 l/m 0.4 km/h (0 Bft) SO 0.00 h 44 W/m 5.4 C 5.7 C 1.3 km/h (1 Bft)
27.09.2010 09:00 6.7 C 97 % 1012.7 hPa 0.0 l/m 0.6 km/h (0 Bft) NO 0.20 h 171 W/m 6.3 C 6.7 C 1.8 km/h (1 Bft)
27.09.2010 10:00 8.6 C 92 % 1012.7 hPa 0.0 l/m 1.6 km/h (1 Bft) SO 0.87 h 376 W/m 7.4 C 8.6 C 3.5 km/h (1 Bft)
27.09.2010 11:00 11.9 C 82 % 1012.4 hPa 0.0 l/m 1.0 km/h (0 Bft) W 1.00 h 521 W/m 9.0 C 11.9 C 3.0 km/h (1 Bft)
27.09.2010 12:00 13.0 C 71 % 1012.0 hPa 0.0 l/m 2.7 km/h (1 Bft) W-SW 0.83 h 553 W/m 7.9 C 13.0 C 5.7 km/h (1 Bft)
27.09.2010 13:00 14.0 C 64 % 1011.9 hPa 0.0 l/m 6.0 km/h (2 Bft) W-SW 0.97 h 654 W/m 7.2 C 14.0 C 10.0 km/h (2 Bft)
27.09.2010 14:00 14.7 C 60 % 1011.8 hPa 0.0 l/m 8.3 km/h (2 Bft) W 0.92 h 647 W/m 7.1 C 14.7 C 13.2 km/h (3 Bft)
27.09.2010 15:00 15.1 C 59 % 1011.8 hPa 0.0 l/m 5.7 km/h (1 Bft) W-NW 0.42 h 277 W/m 7.2 C 15.1 C 9.0 km/h (2 Bft)
27.09.2010 16:00 15.2 C 60 % 1011.8 hPa 0.0 l/m 5.6 km/h (1 Bft) W-SW 0.82 h 313 W/m 7.6 C 15.2 C 8.8 km/h (2 Bft)
27.09.2010 17:00 14.3 C 65 % 1012.1 hPa 0.0 l/m 5.0 km/h (1 Bft) W 0.57 h 172 W/m 7.9 C 14.3 C 7.9 km/h (2 Bft)
27.09.2010 18:00 12.6 C 72 % 1012.6 hPa 0.0 l/m 4.6 km/h (1 Bft) W 0.00 h 44 W/m 7.6 C 12.6 C 7.4 km/h (2 Bft)
27.09.2010 19:00 11.3 C 79 % 1013.1 hPa 0.0 l/m 0.7 km/h (0 Bft) W 0.00 h 6 W/m 7.7 C 11.3 C 1.8 km/h (1 Bft)
27.09.2010 20:00 10.7 C 83 % 1013.8 hPa 0.0 l/m 0.0 km/h (0 Bft) W 0.00 h 0 W/m 8.1 C 10.7 C 0.0 km/h (0 Bft)
27.09.2010 21:00 10.7 C 80 % 1014.2 hPa 0.0 l/m 3.0 km/h (1 Bft) W 0.00 h 0 W/m 7.5 C 10.7 C 5.4 km/h (1 Bft)
27.09.2010 22:00 10.4 C 82 % 1014.4 hPa 0.0 l/m 3.4 km/h (1 Bft) NW 0.00 h 0 W/m 7.4 C 10.4 C 6.1 km/h (2 Bft)
27.09.2010 23:00 10.0 C 80 % 1014.5 hPa 0.0 l/m 2.9 km/h (1 Bft) W 0.00 h 0 W/m 6.7 C 9.8 C 5.7 km/h (1 Bft)
28.09.2010 00:00 9.4 C 82 % 1014.9 hPa 0.0 l/m 5.1 km/h (1 Bft) W 0.00 h 0 W/m 6.4 C 9.0 C 8.1 km/h (2 Bft)
28.09.2010 01:00 8.4 C 87 % 1015.1 hPa 0.0 l/m 2.0 km/h (1 Bft) W-NW 0.00 h 0 W/m 6.3 C 8.3 C 3.9 km/h (1 Bft)
28.09.2010 02:00 8.1 C 89 % 1015.2 hPa 0.0 l/m 0.6 km/h (0 Bft) W-NW 0.00 h 0 W/m 6.5 C 8.1 C 1.4 km/h (1 Bft)
28.09.2010 03:00 8.2 C 90 % 1015.1 hPa 0.0 l/m 0.6 km/h (0 Bft) W-NW 0.00 h 0 W/m 6.6 C 8.2 C 1.7 km/h (1 Bft)
28.09.2010 04:00 8.4 C 88 % 1015.3 hPa 0.0 l/m 0.8 km/h (0 Bft) W-NW 0.00 h 0 W/m 6.6 C 8.4 C 2.3 km/h (1 Bft)
28.09.2010 05:00 8.3 C 87 % 1015.4 hPa 0.0 l/m 0.5 km/h (0 Bft) W 0.00 h 0 W/m 6.3 C 8.3 C 2.0 km/h (1 Bft)
28.09.2010 06:00 7.9 C 89 % 1015.8 hPa 0.0 l/m 0.2 km/h (0 Bft) W-NW 0.00 h 0 W/m 6.2 C 7.9 C 1.1 km/h (1 Bft)
28.09.2010 07:00 7.9 C 90 % 1016.4 hPa 0.0 l/m 0.2 km/h (0 Bft) W-NW 0.00 h 16 W/m 6.4 C 7.9 C 0.9 km/h (0 Bft)
28.09.2010 08:00 8.3 C 90 % 1016.5 hPa 0.0 l/m 0.1 km/h (0 Bft) W-NW 0.00 h 42 W/m 6.7 C 8.3 C 0.5 km/h (0 Bft)
28.09.2010 09:00 9.0 C 88 % 1016.9 hPa 0.0 l/m 2.0 km/h (1 Bft) W-NW 0.00 h 122 W/m 7.1 C 8.9 C 3.9 km/h (1 Bft)
28.09.2010 10:00 9.8 C 83 % 1017.1 hPa 0.0 l/m 5.2 km/h (1 Bft) W-NW 0.00 h 176 W/m 7.0 C 9.5 C 8.5 km/h (2 Bft)
28.09.2010 11:00 10.5 C 78 % 1017.5 hPa 0.0 l/m 6.6 km/h (2 Bft) W 0.00 h 264 W/m 6.9 C 10.5 C 10.1 km/h (2 Bft)
28.09.2010 12:00 11.7 C 77 % 1017.8 hPa 0.0 l/m 4.1 km/h (1 Bft) W 0.25 h 310 W/m 7.8 C 11.7 C 7.0 km/h (2 Bft)
28.09.2010 13:00 12.0 C 76 % 1017.9 hPa 0.0 l/m 4.5 km/h (1 Bft) W 0.15 h 284 W/m 8.0 C 12.0 C 7.8 km/h (2 Bft)
28.09.2010 14:00 13.0 C 72 % 1017.7 hPa 0.0 l/m 6.1 km/h (2 Bft) W 0.78 h 364 W/m 8.0 C 13.0 C 10.1 km/h (2 Bft)
28.09.2010 15:00 13.4 C 71 % 1017.7 hPa 0.0 l/m 4.3 km/h (1 Bft) W-SW 0.32 h 267 W/m 8.2 C 13.4 C 7.7 km/h (2 Bft)
28.09.2010 16:00 12.8 C 72 % 1017.9 hPa 0.0 l/m 3.4 km/h (1 Bft) W 0.00 h 143 W/m 7.8 C 12.8 C 7.0 km/h (2 Bft)
28.09.2010 17:00 12.6 C 72 % 1018.0 hPa 0.0 l/m 4.8 km/h (1 Bft) W 0.00 h 77 W/m 7.8 C 12.6 C 8.3 km/h (2 Bft)
28.09.2010 18:00 12.0 C 74 % 1018.4 hPa 0.0 l/m 3.3 km/h (1 Bft) W-NW 0.00 h 23 W/m 7.5 C 12.0 C 5.4 km/h (1 Bft)
28.09.2010 19:00 11.5 C 79 % 1018.9 hPa 0.0 l/m 0.3 km/h (0 Bft) W-NW 0.00 h 0 W/m 8.0 C 11.5 C 1.1 km/h (1 Bft)
28.09.2010 20:00 11.1 C 83 % 1019.3 hPa 0.0 l/m 0.0 km/h (0 Bft) N 0.00 h 0 W/m 8.4 C 11.1 C 0.2 km/h (0 Bft)
28.09.2010 21:00 10.5 C 87 % 1019.7 hPa 0.0 l/m 0.0 km/h (0 Bft) N 0.00 h 0 W/m 8.4 C 10.5 C 0.0 km/h (0 Bft)
28.09.2010 22:00 10.0 C 90 % 1019.8 hPa 0.0 l/m 0.0 km/h (0 Bft) N 0.00 h 0 W/m 8.3 C 10.0 C 0.0 km/h (0 Bft)
28.09.2010 23:00 9.6 C 90 % 1020.0 hPa 0.0 l/m 0.0 km/h (0 Bft) N 0.00 h 0 W/m 8.1 C 9.6 C 0.0 km/h (0 Bft)
29.09.2010 00:00 8.5 C 93 % 1020.1 hPa 0.0 l/m 0.0 km/h (0 Bft) N 0.00 h 0 W/m 7.5 C 8.5 C 0.0 km/h (0 Bft)
29.09.2010 01:00 8.6 C 94 % 1020.0 hPa 0.0 l/m 0.0 km/h (0 Bft) N 0.00 h 0 W/m 7.7 C 8.6 C 0.0 km/h (0 Bft)
29.09.2010 02:00 8.4 C 94 % 1019.9 hPa 0.0 l/m 0.0 km/h (0 Bft) N 0.00 h 0 W/m 7.5 C 8.4 C 0.0 km/h (0 Bft)
29.09.2010 03:00 7.9 C 96 % 1019.5 hPa 0.0 l/m 0.0 km/h (0 Bft) N 0.00 h 0 W/m 7.3 C 7.9 C 0.0 km/h (0 Bft)
29.09.2010 04:00 8.1 C 96 % 1019.3 hPa 0.0 l/m 0.0 km/h (0 Bft) N 0.00 h 0 W/m 7.5 C 8.1 C 0.0 km/h (0 Bft)
29.09.2010 05:00 8.4 C 96 % 1019.1 hPa 0.0 l/m 0.0 km/h (0 Bft) N 0.00 h 0 W/m 7.8 C 8.4 C 0.0 km/h (0 Bft)
29.09.2010 06:00 8.7 C 95 % 1019.1 hPa 0.0 l/m 0.0 km/h (0 Bft) N 0.00 h 0 W/m 8.0 C 8.7 C 0.0 km/h (0 Bft)
29.09.2010 07:00 8.8 C 95 % 1019.3 hPa 0.0 l/m 0.0 km/h (0 Bft) SO 0.00 h 13 W/m 8.1 C 8.8 C 0.4 km/h (0 Bft)
29.09.2010 08:00 9.2 C 95 % 1019.6 hPa 0.0 l/m 0.0 km/h (0 Bft) SO 0.00 h 35 W/m 8.5 C 9.2 C 0.3 km/h (0 Bft)
29.09.2010 09:00 9.8 C 94 % 1019.6 hPa 0.0 l/m 0.1 km/h (0 Bft) SO 0.00 h 70 W/m 8.8 C 9.8 C 0.6 km/h (0 Bft)
29.09.2010 10:00 10.5 C 92 % 1019.7 hPa 0.0 l/m 0.3 km/h (0 Bft) N-NW 0.00 h 121 W/m 9.3 C 10.5 C 0.8 km/h (0 Bft)
29.09.2010 11:00 11.5 C 89 % 1019.6 hPa 0.0 l/m 0.3 km/h (0 Bft) O-NO 0.00 h 228 W/m 9.8 C 11.5 C 1.3 km/h (1 Bft)
29.09.2010 12:00 12.9 C 81 % 1019.4 hPa 0.0 l/m 0.7 km/h (0 Bft) O-NO 0.25 h 308 W/m 9.7 C 12.9 C 2.1 km/h (1 Bft)
29.09.2010 13:00 14.6 C 75 % 1018.9 hPa 0.0 l/m 1.1 km/h (0 Bft) W-NW 0.87 h 518 W/m 10.2 C 14.6 C 3.0 km/h (1 Bft)
29.09.2010 14:00 15.8 C 71 % 1018.3 hPa 0.0 l/m 1.8 km/h (1 Bft) W 0.58 h 510 W/m 10.5 C 15.8 C 3.8 km/h (1 Bft)
29.09.2010 15:00 15.9 C 71 % 1018.1 hPa 0.0 l/m 2.8 km/h (1 Bft) N-NW 0.05 h 270 W/m 10.7 C 15.9 C 5.0 km/h (1 Bft)
29.09.2010 16:00 15.6 C 74 % 1017.7 hPa 0.0 l/m 2.4 km/h (1 Bft) N 0.03 h 193 W/m 11.1 C 15.6 C 4.3 km/h (1 Bft)
29.09.2010 17:00 15.2 C 77 % 1017.8 hPa 0.0 l/m 1.7 km/h (1 Bft) W-SW 0.00 h 102 W/m 11.2 C 15.2 C 3.7 km/h (1 Bft)
29.09.2010 18:00 14.2 C 79 % 1018.1 hPa 0.0 l/m 1.3 km/h (1 Bft) W 0.00 h 17 W/m 10.6 C 14.2 C 2.5 km/h (1 Bft)
29.09.2010 19:00 13.0 C 84 % 1018.3 hPa 0.0 l/m 0.6 km/h (0 Bft) O-SO 0.00 h 5 W/m 10.3 C 13.0 C 1.3 km/h (1 Bft)
29.09.2010 20:00 12.4 C 87 % 1018.6 hPa 0.0 l/m 0.1 km/h (0 Bft) O-SO 0.00 h 0 W/m 10.2 C 12.4 C 0.5 km/h (0 Bft)
29.09.2010 21:00 12.0 C 88 % 1018.9 hPa 0.0 l/m 0.1 km/h (0 Bft) O-SO 0.00 h 0 W/m 10.0 C 12.0 C 0.3 km/h (0 Bft)
29.09.2010 22:00 11.4 C 90 % 1018.8 hPa 0.0 l/m 0.3 km/h (0 Bft) O-SO 0.00 h 0 W/m 9.8 C 11.4 C 1.0 km/h (0 Bft)
29.09.2010 23:00 10.0 C 94 % 1018.9 hPa 0.0 l/m 1.5 km/h (1 Bft) O-SO 0.00 h 0 W/m 9.0 C 10.0 C 2.3 km/h (1 Bft)
30.09.2010 00:00 9.2 C 96 % 1018.9 hPa 0.0 l/m 1.7 km/h (1 Bft) O-SO 0.00 h 0 W/m 8.5 C 9.1 C 2.9 km/h (1 Bft)
30.09.2010 01:00 8.4 C 96 % 1018.6 hPa 0.0 l/m 1.2 km/h (1 Bft) O 0.00 h 0 W/m 7.9 C 8.4 C 2.0 km/h (1 Bft)
30.09.2010 02:00 8.2 C 97 % 1018.5 hPa 0.0 l/m 1.4 km/h (1 Bft) SO 0.00 h 0 W/m 7.7 C 8.2 C 2.5 km/h (1 Bft)
30.09.2010 03:00 8.2 C 97 % 1018.2 hPa 0.0 l/m 2.0 km/h (1 Bft) O-SO 0.00 h 0 W/m 7.8 C 8.2 C 3.2 km/h (1 Bft)
30.09.2010 04:00 8.7 C 98 % 1017.7 hPa 0.0 l/m 0.2 km/h (0 Bft) O-SO 0.00 h 0 W/m 8.4 C 8.7 C 0.6 km/h (0 Bft)
30.09.2010 05:00 8.8 C 98 % 1017.7 hPa 0.0 l/m 0.0 km/h (0 Bft) N 0.00 h 0 W/m 8.5 C 8.8 C 0.0 km/h (0 Bft)
30.09.2010 06:00 8.9 C 98 % 1017.8 hPa 0.0 l/m 0.0 km/h (0 Bft) N 0.00 h 0 W/m 8.6 C 8.9 C 0.0 km/h (0 Bft)
30.09.2010 07:00 9.0 C 97 % 1017.8 hPa 0.0 l/m 0.0 km/h (0 Bft) N 0.00 h 8 W/m 8.7 C 9.0 C 0.0 km/h (0 Bft)
30.09.2010 08:00 9.4 C 98 % 1017.9 hPa 0.0 l/m 0.0 km/h (0 Bft) N 0.00 h 35 W/m 9.1 C 9.4 C 0.0 km/h (0 Bft)
30.09.2010 09:00 10.1 C 97 % 1017.8 hPa 0.0 l/m 0.0 km/h (0 Bft) W 0.00 h 72 W/m 9.6 C 10.1 C 0.3 km/h (0 Bft)
30.09.2010 10:00 11.0 C 95 % 1017.7 hPa 0.0 l/m 0.2 km/h (0 Bft) W-NW 0.00 h 140 W/m 10.1 C 11.0 C 0.3 km/h (0 Bft)
30.09.2010 11:00 12.8 C 90 % 1017.5 hPa 0.0 l/m 0.0 km/h (0 Bft) N 0.67 h 332 W/m 11.2 C 12.8 C 0.0 km/h (0 Bft)
30.09.2010 12:00 13.7 C 87 % 1017.1 hPa 0.0 l/m 0.0 km/h (0 Bft) W-NW 0.08 h 257 W/m 11.7 C 13.7 C 0.1 km/h (0 Bft)
30.09.2010 13:00 15.5 C 81 % 1016.6 hPa 0.0 l/m 0.8 km/h (0 Bft) S-SO 0.75 h 425 W/m 12.2 C 15.5 C 1.9 km/h (1 Bft)
30.09.2010 14:00 16.3 C 77 % 1016.0 hPa 0.0 l/m 0.2 km/h (0 Bft) SO 0.53 h 354 W/m 12.3 C 16.3 C 0.6 km/h (0 Bft)
30.09.2010 15:00 16.6 C 78 % 1015.7 hPa 0.0 l/m 0.2 km/h (0 Bft) S-SO 0.00 h 253 W/m 12.7 C 16.6 C 0.7 km/h (0 Bft)
30.09.2010 16:00 16.0 C 79 % 1015.4 hPa 0.0 l/m 0.2 km/h (0 Bft) S-SO 0.03 h 160 W/m 12.3 C 16.0 C 1.0 km/h (0 Bft)
30.09.2010 17:00 15.8 C 80 % 1015.1 hPa 0.0 l/m 0.0 km/h (0 Bft) N 0.13 h 102 W/m 12.3 C 15.8 C 0.0 km/h (0 Bft)
30.09.2010 18:00 15.4 C 83 % 1015.0 hPa 0.0 l/m 0.0 km/h (0 Bft) N 0.00 h 47 W/m 12.6 C 15.4 C 0.3 km/h (0 Bft)
30.09.2010 19:00 14.2 C 90 % 1015.2 hPa 0.0 l/m 0.8 km/h (0 Bft) S 0.00 h 5 W/m 12.5 C 14.2 C 1.3 km/h (1 Bft)
30.09.2010 20:00 13.2 C 95 % 1015.5 hPa 0.8 l/m 1.5 km/h (1 Bft) S 0.00 h 0 W/m 12.4 C 13.2 C 2.3 km/h (1 Bft)
30.09.2010 21:00 12.7 C 97 % 1015.5 hPa 0.2 l/m 1.2 km/h (1 Bft) O-SO 0.00 h 0 W/m 12.2 C 12.7 C 2.4 km/h (1 Bft)
30.09.2010 22:00 12.6 C 97 % 1015.4 hPa 0.0 l/m 0.7 km/h (0 Bft) O-SO 0.00 h 0 W/m 12.1 C 12.6 C 1.8 km/h (1 Bft)
30.09.2010 23:00 12.5 C 97 % 1015.3 hPa 0.0 l/m 1.4 km/h (1 Bft) O-SO 0.00 h 0 W/m 12.1 C 12.5 C 2.5 km/h (1 Bft)
01.10.2010 00:00 12.4 C 98 % 1015.1 hPa 0.2 l/m 0.2 km/h (0 Bft) O-SO 0.00 h 0 W/m 12.1 C 12.4 C 1.0 km/h (0 Bft)
01.10.2010 01:00 12.3 C 98 % 1014.8 hPa 1.0 l/m 0.5 km/h (0 Bft) W 0.00 h 0 W/m 12.0 C 12.3 C 1.6 km/h (1 Bft)
01.10.2010 02:00 12.2 C 98 % 1014.7 hPa 0.6 l/m 1.9 km/h (1 Bft) S 0.00 h 0 W/m 11.9 C 12.2 C 3.9 km/h (1 Bft)
01.10.2010 03:00 12.1 C 98 % 1014.6 hPa 0.4 l/m 2.5 km/h (1 Bft) W-NW 0.00 h 0 W/m 11.7 C 12.1 C 5.0 km/h (1 Bft)
01.10.2010 04:00 11.9 C 98 % 1014.6 hPa 0.2 l/m 3.0 km/h (1 Bft) W 0.00 h 0 W/m 11.6 C 11.9 C 5.5 km/h (1 Bft)
01.10.2010 05:00 11.8 C 98 % 1014.6 hPa 0.0 l/m 1.7 km/h (1 Bft) W-SW 0.00 h 0 W/m 11.4 C 11.8 C 3.6 km/h (1 Bft)
01.10.2010 06:00 11.4 C 98 % 1014.8 hPa 0.0 l/m 3.3 km/h (1 Bft) W-NW 0.00 h 0 W/m 11.1 C 11.4 C 6.2 km/h (2 Bft)
01.10.2010 07:00 11.2 C 97 % 1015.1 hPa 0.0 l/m 1.0 km/h (0 Bft) W-SW 0.00 h 14 W/m 10.8 C 11.2 C 3.2 km/h (1 Bft)
01.10.2010 08:00 11.9 C 96 % 1015.4 hPa 0.0 l/m 0.0 km/h (0 Bft) W 0.00 h 70 W/m 11.3 C 11.9 C 0.5 km/h (0 Bft)
01.10.2010 09:00 12.0 C 97 % 1015.7 hPa 0.0 l/m 3.1 km/h (1 Bft) W 0.20 h 164 W/m 11.5 C 12.0 C 5.6 km/h (1 Bft)
01.10.2010 10:00 12.7 C 93 % 1015.8 hPa 0.0 l/m 3.7 km/h (1 Bft) W-NW 0.55 h 283 W/m 11.6 C 12.7 C 6.5 km/h (2 Bft)
01.10.2010 11:00 13.0 C 88 % 1015.9 hPa 0.0 l/m 6.9 km/h (2 Bft) W 0.93 h 372 W/m 11.1 C 13.0 C 10.7 km/h (2 Bft)
01.10.2010 12:00 14.5 C 81 % 1015.5 hPa 0.0 l/m 6.1 km/h (2 Bft) W 0.97 h 522 W/m 11.3 C 14.5 C 9.3 km/h (2 Bft)
01.10.2010 13:00 15.8 C 74 % 1014.9 hPa 0.0 l/m 2.9 km/h (1 Bft) W-NW 0.98 h 604 W/m 11.2 C 15.8 C 5.7 km/h (1 Bft)
01.10.2010 14:00 16.3 C 68 % 1014.2 hPa 0.0 l/m 1.6 km/h (1 Bft) W-NW 0.83 h 491 W/m 10.5 C 16.3 C 3.7 km/h (1 Bft)
01.10.2010 15:00 17.3 C 66 % 1014.0 hPa 0.0 l/m 3.1 km/h (1 Bft) W-NW 0.38 h 212 W/m 10.9 C 17.3 C 5.5 km/h (1 Bft)
01.10.2010 16:00 17.7 C 64 % 1013.7 hPa 0.0 l/m 2.1 km/h (1 Bft) W-NW 0.92 h 312 W/m 10.9 C 17.7 C 4.3 km/h (1 Bft)
01.10.2010 17:00 17.0 C 65 % 1013.4 hPa 0.0 l/m 0.6 km/h (0 Bft) W 0.90 h 171 W/m 10.4 C 17.0 C 1.8 km/h (1 Bft)
01.10.2010 18:00 15.6 C 72 % 1013.6 hPa 0.0 l/m 0.9 km/h (0 Bft) O-SO 0.00 h 32 W/m 10.5 C 15.6 C 1.3 km/h (1 Bft)
01.10.2010 19:00 12.6 C 86 % 1014.1 hPa 0.0 l/m 2.1 km/h (1 Bft) O-SO 0.00 h 0 W/m 10.3 C 12.6 C 3.1 km/h (1 Bft)
01.10.2010 20:00 11.0 C 92 % 1014.5 hPa 0.0 l/m 0.4 km/h (0 Bft) O-SO 0.00 h 0 W/m 9.7 C 11.0 C 1.5 km/h (1 Bft)
01.10.2010 21:00 10.2 C 94 % 1014.7 hPa 0.0 l/m 0.7 km/h (0 Bft) O-SO 0.00 h 0 W/m 9.2 C 10.2 C 1.4 km/h (1 Bft)
01.10.2010 22:00 9.6 C 95 % 1015.0 hPa 0.0 l/m 0.5 km/h (0 Bft) O-SO 0.00 h 0 W/m 8.8 C 9.6 C 1.0 km/h (0 Bft)
01.10.2010 23:00 9.0 C 96 % 1015.2 hPa 0.0 l/m 1.0 km/h (0 Bft) O-SO 0.00 h 0 W/m 8.4 C 9.0 C 1.8 km/h (1 Bft)
02.10.2010 00:00 8.8 C 97 % 1015.4 hPa 0.0 l/m 0.6 km/h (0 Bft) O-SO 0.00 h 0 W/m 8.3 C 8.8 C 1.3 km/h (1 Bft)
02.10.2010 01:00 8.6 C 97 % 1015.2 hPa 0.0 l/m 0.3 km/h (0 Bft) O-SO 0.00 h 0 W/m 8.1 C 8.6 C 1.1 km/h (1 Bft)
02.10.2010 02:00 8.7 C 97 % 1015.3 hPa 0.0 l/m 0.4 km/h (0 Bft) O-SO 0.00 h 0 W/m 8.3 C 8.7 C 0.9 km/h (0 Bft)
02.10.2010 03:00 8.9 C 97 % 1015.3 hPa 0.0 l/m 0.0 km/h (0 Bft) N 0.00 h 0 W/m 8.5 C 8.9 C 0.0 km/h (0 Bft)
02.10.2010 04:00 9.1 C 97 % 1015.0 hPa 0.0 l/m 0.0 km/h (0 Bft) N 0.00 h 0 W/m 8.7 C 9.1 C 0.0 km/h (0 Bft)
02.10.2010 05:00 9.4 C 98 % 1014.9 hPa 0.0 l/m 0.0 km/h (0 Bft) O-SO 0.00 h 0 W/m 9.0 C 9.4 C 0.6 km/h (0 Bft)
02.10.2010 06:00 9.5 C 98 % 1015.1 hPa 0.0 l/m 0.3 km/h (0 Bft) O-SO 0.00 h 0 W/m 9.2 C 9.5 C 0.4 km/h (0 Bft)
02.10.2010 07:00 9.5 C 98 % 1015.3 hPa 0.0 l/m 0.1 km/h (0 Bft) O-SO 0.00 h 11 W/m 9.2 C 9.5 C 0.2 km/h (0 Bft)
02.10.2010 08:00 10.0 C 98 % 1015.8 hPa 0.0 l/m 0.0 km/h (0 Bft) N 0.00 h 54 W/m 9.7 C 10.0 C 0.1 km/h (0 Bft)
02.10.2010 09:00 11.4 C 95 % 1016.2 hPa 0.0 l/m 0.0 km/h (0 Bft) O-SO 0.52 h 184 W/m 10.6 C 11.4 C 0.8 km/h (0 Bft)
02.10.2010 10:00 13.1 C 90 % 1016.1 hPa 0.0 l/m 0.9 km/h (0 Bft) O-SO 0.43 h 298 W/m 11.6 C 13.1 C 2.4 km/h (1 Bft)
02.10.2010 11:00 15.2 C 83 % 1015.9 hPa 0.0 l/m 1.4 km/h (1 Bft) W-SW 0.62 h 377 W/m 12.3 C 15.2 C 3.6 km/h (1 Bft)
02.10.2010 12:00 17.7 C 75 % 1015.6 hPa 0.0 l/m 2.6 km/h (1 Bft) S-SO 0.98 h 547 W/m 13.1 C 17.7 C 6.1 km/h (2 Bft)
02.10.2010 13:00 18.0 C 71 % 1015.2 hPa 0.0 l/m 4.5 km/h (1 Bft) S-SO 0.62 h 394 W/m 12.6 C 18.0 C 9.2 km/h (2 Bft)
02.10.2010 14:00 19.0 C 70 % 1014.6 hPa 0.0 l/m 2.2 km/h (1 Bft) S-SO 0.57 h 415 W/m 13.3 C 19.0 C 5.0 km/h (1 Bft)
02.10.2010 15:00 19.7 C 64 % 1014.1 hPa 0.0 l/m 1.8 km/h (1 Bft) S-SO 0.37 h 251 W/m 12.7 C 19.7 C 4.0 km/h (1 Bft)
02.10.2010 16:00 19.7 C 63 % 1014.0 hPa 0.0 l/m 0.2 km/h (0 Bft) S 0.05 h 162 W/m 12.3 C 19.7 C 1.4 km/h (1 Bft)
02.10.2010 17:00 19.8 C 66 % 1013.7 hPa 0.0 l/m 1.7 km/h (1 Bft) O-SO 0.62 h 169 W/m 13.1 C 19.8 C 3.2 km/h (1 Bft)
02.10.2010 18:00 18.7 C 71 % 1013.5 hPa 0.0 l/m 0.5 km/h (0 Bft) O-SO 0.00 h 33 W/m 13.3 C 18.7 C 1.2 km/h (1 Bft)
02.10.2010 19:00 15.7 C 85 % 1014.1 hPa 0.0 l/m 1.2 km/h (1 Bft) O-SO 0.00 h 0 W/m 13.2 C 15.7 C 2.1 km/h (1 Bft)
02.10.2010 20:00 13.9 C 90 % 1014.3 hPa 0.0 l/m 0.6 km/h (0 Bft) O-SO 0.00 h 0 W/m 12.4 C 13.9 C 1.2 km/h (1 Bft)
02.10.2010 21:00 12.7 C 93 % 1014.3 hPa 0.0 l/m 0.4 km/h (0 Bft) O-SO 0.00 h 0 W/m 11.6 C 12.7 C 1.1 km/h (1 Bft)
02.10.2010 22:00 12.0 C 94 % 1014.2 hPa 0.0 l/m 0.3 km/h (0 Bft) O-SO 0.00 h 0 W/m 11.2 C 12.0 C 0.6 km/h (0 Bft)
02.10.2010 23:00 11.3 C 96 % 1014.1 hPa 0.0 l/m 0.1 km/h (0 Bft) O-SO 0.00 h 0 W/m 10.7 C 11.3 C 0.4 km/h (0 Bft)
03.10.2010 00:00 10.8 C 97 % 1013.8 hPa 0.0 l/m 1.0 km/h (0 Bft) O-SO 0.00 h 0 W/m 10.3 C 10.8 C 2.0 km/h (1 Bft)
03.10.2010 01:00 10.6 C 97 % 1013.4 hPa 0.0 l/m 0.6 km/h (0 Bft) O-SO 0.00 h 0 W/m 10.1 C 10.6 C 1.0 km/h (0 Bft)
03.10.2010 02:00 10.5 C 97 % 1013.3 hPa 0.0 l/m 0.2 km/h (0 Bft) O-SO 0.00 h 0 W/m 10.1 C 10.5 C 0.4 km/h (0 Bft)
03.10.2010 03:00 10.3 C 97 % 1012.9 hPa 0.0 l/m 0.3 km/h (0 Bft) O-SO 0.00 h 0 W/m 9.8 C 10.3 C 0.7 km/h (0 Bft)
03.10.2010 04:00 9.9 C 98 % 1012.3 hPa 0.0 l/m 0.1 km/h (0 Bft) O-SO 0.00 h 0 W/m 9.6 C 9.9 C 0.4 km/h (0 Bft)
03.10.2010 05:00 9.6 C 98 % 1012.0 hPa 0.0 l/m 0.1 km/h (0 Bft) O-SO 0.00 h 0 W/m 9.3 C 9.6 C 0.5 km/h (0 Bft)
03.10.2010 06:00 9.5 C 98 % 1011.8 hPa 0.0 l/m 0.0 km/h (0 Bft) N 0.00 h 0 W/m 9.2 C 9.5 C 0.2 km/h (0 Bft)
03.10.2010 07:00 9.2 C 99 % 1012.2 hPa 0.0 l/m 0.0 km/h (0 Bft) N 0.03 h 15 W/m 9.0 C 9.2 C 0.1 km/h (0 Bft)
03.10.2010 08:00 9.6 C 99 % 1012.6 hPa 0.0 l/m 0.2 km/h (0 Bft) W-SW 0.00 h 40 W/m 9.4 C 9.6 C 0.5 km/h (0 Bft)
03.10.2010 09:00 10.4 C 99 % 1012.9 hPa 0.0 l/m 0.1 km/h (0 Bft) S-SW 0.32 h 140 W/m 10.2 C 10.4 C 0.7 km/h (0 Bft)
03.10.2010 10:00 12.3 C 98 % 1012.6 hPa 0.0 l/m 0.7 km/h (0 Bft) S-SO 0.73 h 306 W/m 12.0 C 12.3 C 2.0 km/h (1 Bft)
03.10.2010 11:00 15.5 C 89 % 1011.9 hPa 0.0 l/m 0.7 km/h (0 Bft) S-SO 1.00 h 497 W/m 13.7 C 15.5 C 2.3 km/h (1 Bft)
03.10.2010 12:00 17.9 C 82 % 1011.0 hPa 0.0 l/m 1.4 km/h (1 Bft) W-SW 1.00 h 571 W/m 14.7 C 17.9 C 3.2 km/h (1 Bft)
03.10.2010 13:00 19.5 C 76 % 1010.0 hPa 0.0 l/m 2.9 km/h (1 Bft) W-NW 1.00 h 586 W/m 15.1 C 19.5 C 5.0 km/h (1 Bft)
03.10.2010 14:00 20.7 C 73 % 1008.8 hPa 0.0 l/m 3.3 km/h (1 Bft) W-NW 1.00 h 548 W/m 15.6 C 20.7 C 5.5 km/h (1 Bft)
03.10.2010 15:00 22.0 C 67 % 1007.9 hPa 0.0 l/m 2.4 km/h (1 Bft) W 0.27 h 195 W/m 15.6 C 22.0 C 4.7 km/h (1 Bft)
03.10.2010 16:00 22.5 C 61 % 1007.1 hPa 0.0 l/m 1.9 km/h (1 Bft) O 1.00 h 337 W/m 14.5 C 22.5 C 4.3 km/h (1 Bft)
03.10.2010 17:00 22.1 C 61 % 1006.7 hPa 0.0 l/m 3.4 km/h (1 Bft) O-SO 0.98 h 186 W/m 14.2 C 22.1 C 5.9 km/h (2 Bft)
03.10.2010 18:00 20.2 C 69 % 1006.3 hPa 0.0 l/m 1.3 km/h (1 Bft) O-SO 0.00 h 16 W/m 14.3 C 20.2 C 2.8 km/h (1 Bft)
03.10.2010 19:00 17.1 C 82 % 1006.5 hPa 0.0 l/m 0.4 km/h (0 Bft) O-SO 0.00 h 0 W/m 13.9 C 17.1 C 1.1 km/h (1 Bft)
03.10.2010 20:00 15.3 C 89 % 1006.6 hPa 0.0 l/m 0.2 km/h (0 Bft) O-SO 0.00 h 0 W/m 13.5 C 15.3 C 0.7 km/h (0 Bft)
03.10.2010 21:00 13.9 C 93 % 1006.6 hPa 0.0 l/m 1.2 km/h (1 Bft) O-SO 0.00 h 0 W/m 12.7 C 13.9 C 1.8 km/h (1 Bft)
03.10.2010 22:00 13.1 C 95 % 1006.3 hPa 0.0 l/m 0.2 km/h (0 Bft) N 0.00 h 0 W/m 12.2 C 13.1 C 0.7 km/h (0 Bft)
03.10.2010 23:00 12.5 C 96 % 1006.1 hPa 0.0 l/m 0.3 km/h (0 Bft) N 0.00 h 0 W/m 11.8 C 12.5 C 1.3 km/h (1 Bft)
Min-Datum _ 27.09.10 27.09.10 03.10.10 - 27.09.10 - - - 27.09.10 27.09.10 27.09.10
_ Min-Zeit 07:27 14:48 23:15 - 00:00 - - - 07:27 07:27 00:00
Minimum _ 5.2 C 55 % 1005.9 hPa - 0.0 km/h (0 Bft) - - - 4.6 C 5.2 C 0.0 km/h (0 Bft)
Max-Datum _ 03.10.10 30.09.10 29.09.10 01.10.10 27.09.10 - 27.09.10 29.09.10 03.10.10 03.10.10 27.09.10
_ Max-Zeit 16:36 06:31 00:30 01:08 14:47 - 09:48 13:23 15:12 16:36 14:48
Maximum _ 22.7 C 100 % 1020.2 hPa 1.0 l/m 17.9 km/h
W (3 Bft)
- 0.02 h 884 W/m 16.5 C 22.7 C 24.3 km/h
W (4 Bft)
Durchschnitt _ 12.0 C 87 % 1015.1 hPa #3.4 l/m 1.4 km/h (1 Bft) W #30:50 h 230 W/m 9.7 C 12.0 C 2.6 km/h (1 Bft)
© Kaiko 2010